Terminal Aerodrome Forecast
Issued by NWS

Home | Current Version | Previous Version | Text Only | Print | Product List | Glossary On
Versions: 1 2 3 4 5 6 7 8 9 10 11 12 13 14 15 16 17 18 19
000
FTUS46 KLOX 280500
TAFPRB
TAF
KPRB 280535Z 2806/2906 31008KT P6SM SKC
     FM280700 VRB03KT P6SM SKC
     FM282200 06007KT P6SM SCT250
     FM290400 VRB03KT P6SM SCT250=

USA.gov is the U.S. government's official web portal to all federal, state and local government web resources and services.